Time;durP1;ratioP1;P1;durP2;ratioP2;P2;SDS_P1;SDS_P2;PMS_P1;PMS_P2;Temp;Humidity;BMP_temperature;BMP_pressure;BME280_temperature;BME280_humidity;BME280_pressure;Samples;Min_cycle;Max_cycle;Signal;HPM_P1;HPM_P2
2023/09/20 00:02:39;;;;;;;0.00;0.00;;;;;;;-145.48;100.00;64539.38;5845448;30;20049;-88
2023/09/20 00:06:42;;;;;;;0.00;0.00;;;;;;;-145.48;100.00;64539.38;5845291;30;20056;-89
2023/09/20 00:10:45;;;;;;;0.00;0.00;;;;;;;-145.48;100.00;64539.38;5846742;30;20041;-89
2023/09/20 00:14:46;;;;;;;0.10;0.10;;;;;;;-145.48;100.00;64539.38;5843867;30;20048;-89
2023/09/20 00:18:46;;;;;;;0.10;0.10;;;;;;;-145.48;100.00;64539.38;5845646;30;20061;-89
2023/09/20 00:22:47;;;;;;;0.38;0.10;;;;;;;-145.48;100.00;64539.38;5847389;30;20041;-89
2023/09/20 00:26:47;;;;;;;;;;;;;;;-145.48;100.00;64539.38;5840738;30;20048;-89
2023/09/20 00:30:53;;;;;;;0.13;0.13;;;;;;;-145.48;100.00;64539.38;5828394;30;20375;-89
2023/09/20 00:34:54;;;;;;;0.00;0.00;;;;;;;-145.48;100.00;64539.38;5837809;30;20512;-88
2023/09/20 00:38:55;;;;;;;0.00;0.00;;;;;;;-145.48;100.00;64539.38;5817692;30;20065;-88
2023/09/20 00:42:57;;;;;;;0.05;0.05;;;;;;;-145.48;100.00;64539.38;5834143;30;20045;-89
2023/09/20 00:46:58;;;;;;;0.00;0.00;;;;;;;-145.48;100.00;64539.38;5842896;30;20466;-88
2023/09/20 00:50:59;;;;;;;0.55;0.00;;;;;;;-145.48;100.00;64539.38;5844456;30;20559;-88
2023/09/20 00:55:03;;;;;;;0.30;0.30;;;;;;;-145.48;100.00;64539.38;5830006;30;20053;-88
2023/09/20 00:59:07;;;;;;;0.00;0.00;;;;;;;-145.48;100.00;64539.38;5832564;30;20073;-88
2023/09/20 01:03:08;;;;;;;0.00;0.00;;;;;;;-145.48;100.00;64539.38;5838410;30;20606;-89
2023/09/20 01:07:11;;;;;;;0.00;0.00;;;;;;;-145.48;100.00;64539.38;5835762;30;20073;-89
2023/09/20 01:11:11;;;;;;;0.00;0.00;;;;;;;-145.48;100.00;64539.38;5836131;30;20045;-89
2023/09/20 01:15:11;;;;;;;0.00;0.00;;;;;;;-145.48;100.00;64539.38;5844590;30;20060;-89
2023/09/20 01:19:12;;;;;;;0.10;0.10;;;;;;;-145.48;100.00;64539.38;5835408;30;20392;-89
2023/09/20 01:23:13;;;;;;;0.20;0.20;;;;;;;-145.48;100.00;64539.38;5828649;30;20053;-89
2023/09/20 01:27:14;;;;;;;0.00;0.00;;;;;;;-145.48;100.00;64539.38;5838268;30;20416;-89
2023/09/20 01:31:14;;;;;;;0.00;0.00;;;;;;;-145.48;100.00;64539.38;5826111;30;20052;-88
2023/09/20 01:35:16;;;;;;;;;;;;;;;-145.48;100.00;64539.38;5832292;30;20189;-89
2023/09/20 01:39:17;;;;;;;0.00;0.00;;;;;;;-145.48;100.00;64539.38;5844915;30;19931;-89
2023/09/20 01:43:21;;;;;;;0.00;0.00;;;;;;;-145.48;100.00;64539.38;5807185;30;20509;-89
2023/09/20 01:47:22;;;;;;;5.88;0.40;;;;;;;-145.48;100.00;64539.38;5838788;30;20090;-88
2023/09/20 01:51:23;;;;;;;0.00;0.00;;;;;;;-145.48;100.00;64539.38;5816680;30;20084;-89
2023/09/20 01:55:24;;;;;;;0.00;0.00;;;;;;;-145.48;100.00;64539.38;5823151;30;20049;-89
2023/09/20 01:59:25;;;;;;;0.08;0.08;;;;;;;-145.48;100.00;64539.38;5811983;30;20061;-89
2023/09/20 02:03:27;;;;;;;;;;;;;;;-145.48;100.00;64539.38;5821092;30;20084;-89
2023/09/20 02:07:28;;;;;;;0.00;0.00;;;;;;;-145.48;100.00;64539.38;5815606;30;19934;-89
2023/09/20 02:11:28;;;;;;;0.00;0.00;;;;;;;-145.48;100.00;64539.38;5821730;30;20049;-89
2023/09/20 02:15:29;;;;;;;0.52;0.20;;;;;;;-145.48;100.00;64539.38;5839765;30;20489;-89
2023/09/20 02:19:30;;;;;;;0.00;0.00;;;;;;;-145.48;100.00;64539.38;5834251;30;20192;-89
2023/09/20 02:23:30;;;;;;;0.00;0.00;;;;;;;-145.48;100.00;64539.38;5818350;30;20105;-89
2023/09/20 02:27:34;;;;;;;0.00;0.00;;;;;;;-145.48;100.00;64539.38;5830609;30;20061;-88
2023/09/20 02:31:34;;;;;;;0.00;0.00;;;;;;;-145.48;100.00;64539.38;5845789;30;20059;-88
2023/09/20 02:35:36;;;;;;;0.08;0.08;;;;;;;-145.48;100.00;64539.38;5822302;30;20111;-88
2023/09/20 02:39:37;;;;;;;0.15;0.15;;;;;;;-145.48;100.00;64539.38;5826331;30;20095;-89
2023/09/20 02:43:42;;;;;;;0.43;0.35;;;;;;;-145.48;100.00;64539.38;5824864;30;20060;-89
2023/09/20 02:47:43;;;;;;;0.10;0.10;;;;;;;-145.48;100.00;64539.38;5841971;30;20580;-88
2023/09/20 02:51:43;;;;;;;0.00;0.00;;;;;;;-145.48;100.00;64539.38;5837595;30;20044;-88
2023/09/20 02:55:44;;;;;;;0.10;0.10;;;;;;;-145.48;100.00;64539.38;5824039;30;20480;-88
2023/09/20 02:59:46;;;;;;;0.10;0.10;;;;;;;-145.48;100.00;64539.38;5843378;30;20647;-89
2023/09/20 03:03:51;;;;;;;0.10;0.10;;;;;;;-145.48;100.00;64539.38;5845835;30;20037;-88
2023/09/20 03:07:53;;;;;;;0.08;0.03;;;;;;;-145.48;100.00;64539.38;5829169;30;20154;-89
2023/09/20 03:11:54;;;;;;;0.00;0.00;;;;;;;-145.48;100.00;64539.38;5833360;30;20112;-88
2023/09/20 03:15:55;;;;;;;0.00;0.00;;;;;;;-145.48;100.00;64539.38;5824822;30;20068;-89
2023/09/20 03:20:00;;;;;;;0.00;0.00;;;;;;;-145.48;100.00;64539.38;5833592;30;20195;-88
2023/09/20 03:24:07;;;;;;;0.73;0.30;;;;;;;-145.48;100.00;64539.38;5844548;30;20467;-88
2023/09/20 03:28:09;;;;;;;0.00;0.00;;;;;;;-145.48;100.00;64539.38;5847770;30;20060;-89
2023/09/20 03:32:14;;;;;;;0.00;0.00;;;;;;;-145.48;100.00;64539.38;5830881;30;20138;-89
2023/09/20 03:36:15;;;;;;;0.00;0.00;;;;;;;-145.48;100.00;64539.38;5826249;30;20060;-88
2023/09/20 03:40:21;;;;;;;0.00;0.00;;;;;;;-145.48;100.00;64539.38;5824967;30;20073;-89
2023/09/20 03:44:22;;;;;;;0.00;0.00;;;;;;;-145.48;100.00;64539.38;5828223;30;20065;-89
2023/09/20 03:48:22;;;;;;;0.03;0.00;;;;;;;-145.48;100.00;64539.38;5823495;30;20084;-89
2023/09/20 03:52:22;;;;;;;0.00;0.00;;;;;;;-145.48;100.00;64539.38;5821299;30;20469;-89
2023/09/20 03:56:23;;;;;;;0.20;0.20;;;;;;;-145.48;100.00;64539.38;5806634;30;20053;-89
2023/09/20 04:00:31;;;;;;;0.00;0.00;;;;;;;-145.48;100.00;64539.38;5817347;30;20457;-89
2023/09/20 04:04:34;;;;;;;0.10;0.10;;;;;;;-145.48;100.00;64539.38;5844906;30;20056;-89
2023/09/20 04:08:38;;;;;;;0.10;0.10;;;;;;;-145.48;100.00;64539.38;5824316;30;20092;-89
2023/09/20 04:12:39;;;;;;;0.15;0.15;;;;;;;-145.48;100.00;64539.38;5828460;30;20056;-89
2023/09/20 04:16:40;;;;;;;0.00;0.00;;;;;;;-145.48;100.00;64539.38;5828536;30;20071;-89
2023/09/20 04:20:40;;;;;;;;;;;;;;;-145.48;100.00;64539.38;5825405;30;20046;-89
2023/09/20 04:24:41;;;;;;;0.00;0.00;;;;;;;-145.48;100.00;64539.38;5820546;30;20319;-89
2023/09/20 04:28:41;;;;;;;0.03;0.03;;;;;;;-145.48;100.00;64539.38;5843796;30;20060;-89
2023/09/20 04:32:42;;;;;;;0.30;0.30;;;;;;;-145.48;100.00;64539.38;5824644;30;20148;-89
2023/09/20 04:36:53;;;;;;;0.00;0.00;;;;;;;-145.48;100.00;64539.38;5827127;30;20083;-89
2023/09/20 04:40:56;;;;;;;0.15;0.15;;;;;;;-145.48;100.00;64539.38;5822944;30;20061;-89
2023/09/20 04:44:57;;;;;;;0.03;0.03;;;;;;;-145.48;100.00;64539.38;5844140;30;20052;-89
2023/09/20 04:48:58;;;;;;;0.00;0.00;;;;;;;-145.48;100.00;64539.38;5839997;30;20046;-88
2023/09/20 04:53:00;;;;;;;0.00;0.00;;;;;;;-145.48;100.00;64539.38;5832777;30;20049;-89
2023/09/20 04:57:04;;;;;;;0.00;0.00;;;;;;;-145.48;100.00;64539.38;5827326;30;20143;-89
2023/09/20 05:01:11;;;;;;;0.00;0.00;;;;;;;-145.48;100.00;64539.38;5830995;30;20049;-89
2023/09/20 05:05:12;;;;;;;0.00;0.00;;;;;;;-145.48;100.00;64539.38;5821679;30;20056;-89
2023/09/20 05:09:13;;;;;;;0.00;0.00;;;;;;;-145.48;100.00;64539.38;5847485;30;20048;-89
2023/09/20 05:13:13;;;;;;;0.95;0.38;;;;;;;-145.48;100.00;64539.38;5834843;30;20050;-89
2023/09/20 05:17:14;;;;;;;0.00;0.00;;;;;;;-145.48;100.00;64539.38;5844067;30;20106;-89
2023/09/20 05:21:16;;;;;;;0.00;0.00;;;;;;;-145.48;100.00;64539.38;5827203;30;20061;-89
2023/09/20 05:25:17;;;;;;;0.00;0.00;;;;;;;-145.48;100.00;64539.38;5821699;30;20127;-89
2023/09/20 05:29:18;;;;;;;0.00;0.00;;;;;;;-145.48;100.00;64539.38;5845323;30;20046;-88
2023/09/20 05:33:18;;;;;;;;;;;;;;;-145.48;100.00;64539.38;5837447;30;20057;-88
2023/09/20 05:37:19;;;;;;;0.10;0.10;;;;;;;-145.48;100.00;64539.38;5847776;30;19930;-88
2023/09/20 05:41:19;;;;;;;0.00;0.00;;;;;;;-145.48;100.00;64539.38;5840593;30;20072;-88
2023/09/20 05:45:20;;;;;;;0.03;0.03;;;;;;;-145.48;100.00;64539.38;5843989;30;20441;-88
2023/09/20 05:49:22;;;;;;;0.10;0.10;;;;;;;-145.48;100.00;64539.38;5827994;30;20417;-88
2023/09/20 05:53:23;;;;;;;0.00;0.00;;;;;;;-145.48;100.00;64539.38;5844757;30;20049;-88
2023/09/20 05:57:23;;;;;;;0.55;0.22;;;;;;;-145.48;100.00;64539.38;5843898;30;20568;-88
2023/09/20 06:01:24;;;;;;;0.00;0.00;;;;;;;-145.48;100.00;64539.38;5839126;30;20424;-88
2023/09/20 06:05:26;;;;;;;0.00;0.00;;;;;;;-145.48;100.00;64539.38;5825309;30;20052;-88
2023/09/20 06:09:27;;;;;;;;;;;;;;;-145.48;100.00;64539.38;5841421;30;20052;-88
2023/09/20 06:13:27;;;;;;;0.10;0.10;;;;;;;-145.48;100.00;64539.38;5843725;30;20419;-88
2023/09/20 06:17:29;;;;;;;0.17;0.15;;;;;;;-145.48;100.00;64539.38;5843665;30;20049;-88
2023/09/20 06:21:31;;;;;;;0.20;0.17;;;;;;;-145.48;100.00;64539.38;5838753;30;20052;-88
2023/09/20 06:25:34;;;;;;;0.00;0.00;;;;;;;-145.48;100.00;64539.38;5846729;30;20642;-88
2023/09/20 06:29:35;;;;;;;0.10;0.10;;;;;;;-145.48;100.00;64539.38;5830541;30;20146;-88
2023/09/20 06:33:36;;;;;;;0.03;0.03;;;;;;;-145.48;100.00;64539.38;5848409;30;20052;-88
2023/09/20 06:37:38;;;;;;;0.00;0.00;;;;;;;-145.48;100.00;64539.38;5849126;30;20064;-89
2023/09/20 06:41:42;;;;;;;0.00;0.00;;;;;;;-145.48;100.00;64539.38;5842905;30;20068;-88
2023/09/20 06:45:52;;;;;;;0.35;0.17;;;;;;;-145.48;100.00;64539.38;5850788;30;20063;-88
2023/09/20 06:49:53;;;;;;;0.00;0.00;;;;;;;-145.48;100.00;64539.38;5820627;30;20045;-88
2023/09/20 06:53:53;;;;;;;0.43;0.30;;;;;;;-145.48;100.00;64539.38;5825253;30;20570;-88
2023/09/20 06:57:54;;;;;;;0.20;0.20;;;;;;;-145.48;100.00;64539.38;5843342;30;20541;-88
2023/09/20 07:02:16;;;;;;;0.40;0.40;;;;;;;-145.48;100.00;64539.38;5829490;30;20259;-88
2023/09/20 07:06:16;;;;;;;0.30;0.17;;;;;;;-145.48;100.00;64539.38;5844862;30;20049;-88
2023/09/20 07:10:17;;;;;;;0.52;0.17;;;;;;;-145.48;100.00;64539.38;5831322;30;20050;-89
2023/09/20 07:14:25;;;;;;;0.20;0.20;;;;;;;-145.48;100.00;64539.38;5847641;30;20560;-89
2023/09/20 07:18:25;;;;;;;0.00;0.00;;;;;;;-145.48;100.00;64539.38;5839966;30;20049;-88
2023/09/20 07:22:28;;;;;;;0.43;0.38;;;;;;;-145.48;100.00;64539.38;5822857;30;20052;-89
2023/09/20 07:26:29;;;;;;;0.22;0.22;;;;;;;-145.48;100.00;64539.38;5835743;30;20124;-89
2023/09/20 07:30:34;;;;;;;0.00;0.00;;;;;;;-145.48;100.00;64539.38;5833317;30;20571;-88
2023/09/20 07:34:37;;;;;;;0.00;0.00;;;;;;;-145.48;100.00;64539.38;5823812;30;20045;-88
2023/09/20 07:38:38;;;;;;;0.90;0.73;;;;;;;-145.48;100.00;64539.38;5840702;30;20046;-88
2023/09/20 07:42:38;;;;;;;1.02;0.38;;;;;;;-145.48;100.00;64539.38;5847929;30;20106;-88
2023/09/20 07:46:42;;;;;;;;;;;;;;;-145.48;100.00;64539.38;5843354;30;20049;-88
2023/09/20 07:50:44;;;;;;;0.20;0.20;;;;;;;-145.48;100.00;64539.38;5842768;30;20295;-88
2023/09/20 07:54:45;;;;;;;0.00;0.00;;;;;;;-145.48;100.00;64539.38;5841978;30;20045;-88
2023/09/20 07:58:46;;;;;;;0.00;0.00;;;;;;;-145.48;100.00;64539.38;5845429;30;20548;-88
2023/09/20 08:02:46;;;;;;;0.10;0.10;;;;;;;-145.48;100.00;64539.38;5844206;30;20530;-89
2023/09/20 08:06:48;;;;;;;0.00;0.00;;;;;;;-145.48;100.00;64539.38;5839598;30;20087;-88
2023/09/20 08:10:48;;;;;;;0.10;0.10;;;;;;;-145.48;100.00;64539.38;5843162;30;20045;-88
2023/09/20 08:15:06;;;;;;;0.00;0.00;;;;;;;-145.48;100.00;64539.38;5838633;30;20509;-88
2023/09/20 09:02:26;;;;;;;0.00;0.00;;;;;;;-145.48;100.00;64539.38;5836384;30;20069;-87
2023/09/20 09:06:27;;;;;;;0.05;0.05;;;;;;;-145.48;100.00;64539.38;5833938;30;20440;-88
2023/09/20 09:10:28;;;;;;;0.43;0.20;;;;;;;-145.48;100.00;64539.38;5839910;30;20072;-87
2023/09/20 09:14:30;;;;;;;0.00;0.00;;;;;;;-145.48;100.00;64539.38;5840465;30;20045;-87
2023/09/20 09:18:38;;;;;;;0.20;0.20;;;;;;;-145.48;100.00;64539.38;5841599;30;20045;-87
2023/09/20 09:22:41;;;;;;;0.00;0.00;;;;;;;-145.48;100.00;64539.38;5832777;30;20061;-88
2023/09/20 09:26:45;;;;;;;0.10;0.10;;;;;;;-145.48;100.00;64539.38;5845481;30;20045;-88
2023/09/20 09:30:49;;;;;;;0.20;0.20;;;;;;;-145.48;100.00;64539.38;5830271;30;20049;-87
2023/09/20 09:34:50;;;;;;;0.00;0.00;;;;;;;-145.48;100.00;64539.38;5825826;30;20056;-87
2023/09/20 09:38:50;;;;;;;0.00;0.00;;;;;;;-145.48;100.00;64539.38;5838854;30;20122;-88
2023/09/20 09:43:09;;;;;;;0.20;0.20;;;;;;;-145.48;100.00;64539.38;5832119;30;20158;-88
2023/09/20 09:47:10;;;;;;;0.10;0.10;;;;;;;-145.48;100.00;64539.38;5840690;30;20060;-90
2023/09/20 09:51:12;;;;;;;0.10;0.10;;;;;;;-145.48;100.00;64539.38;5842712;30;20052;-86
2023/09/20 09:55:13;;;;;;;0.10;0.10;;;;;;;-145.48;100.00;64539.38;5833633;30;20572;-87
2023/09/20 09:59:13;;;;;;;0.10;0.10;;;;;;;-145.48;100.00;64539.38;5829423;30;20153;-87
2023/09/20 10:03:26;;;;;;;0.08;0.08;;;;;;;-145.48;100.00;64539.38;5838162;30;20053;-87
2023/09/20 10:07:31;;;;;;;0.00;0.00;;;;;;;-145.48;100.00;64539.38;5823530;30;20053;-88
2023/09/20 10:11:33;;;;;;;0.57;0.10;;;;;;;-145.48;100.00;64539.38;5835555;30;20856;-87
2023/09/20 10:15:36;;;;;;;0.00;0.00;;;;;;;-145.48;100.00;64539.38;5840843;30;20065;-87
2023/09/20 10:19:56;;;;;;;0.40;0.25;;;;;;;-145.48;100.00;64539.38;5832961;30;20195;-87
2023/09/20 10:23:59;;;;;;;0.03;0.03;;;;;;;-145.48;100.00;64539.38;5844100;30;20049;-87
2023/09/20 10:28:08;;;;;;;2.75;0.30;;;;;;;-145.48;100.00;64539.38;5842564;30;20083;-96
2023/09/20 10:32:18;;;;;;;0.00;0.00;;;;;;;-145.48;100.00;64539.38;5844607;30;20547;-87
2023/09/20 10:36:33;;;;;;;0.00;0.00;;;;;;;-145.48;100.00;64539.38;5844997;30;20480;-87
2023/09/20 10:40:55;;;;;;;0.10;0.10;;;;;;;-145.48;100.00;64539.38;5839655;30;20187;-87
2023/09/20 10:45:00;;;;;;;0.30;0.30;;;;;;;-145.48;100.00;64539.38;5830149;30;20525;-87
2023/09/20 10:49:00;;;;;;;0.00;0.00;;;;;;;-145.48;100.00;64539.38;5839546;30;20049;-87
2023/09/20 10:53:01;;;;;;;0.10;0.10;;;;;;;-145.48;100.00;64539.38;5833760;30;20037;-87
2023/09/20 10:57:04;;;;;;;;;;;;;;;-145.48;100.00;64539.38;5827755;30;20053;-87
2023/09/20 11:01:06;;;;;;;0.00;0.00;;;;;;;-145.48;100.00;64539.38;5841283;30;20077;-87
2023/09/20 11:05:07;;;;;;;0.00;0.00;;;;;;;-145.48;100.00;64539.38;5837797;30;20130;-87
2023/09/20 11:09:11;;;;;;;0.10;0.10;;;;;;;-145.48;100.00;64539.38;5843953;30;20122;-87
2023/09/20 11:13:12;;;;;;;0.00;0.00;;;;;;;-145.48;100.00;64539.38;5840264;30;20068;-88
2023/09/20 11:17:16;;;;;;;0.30;0.30;;;;;;;-145.48;100.00;64539.38;5842915;30;20528;-87
2023/09/20 11:21:19;;;;;;;0.00;0.00;;;;;;;-145.48;100.00;64539.38;5821085;30;20049;-88
2023/09/20 11:25:20;;;;;;;0.10;0.10;;;;;;;-145.48;100.00;64539.38;5845151;30;20049;-88
2023/09/20 11:29:21;;;;;;;0.00;0.00;;;;;;;-145.48;100.00;64539.38;5842219;30;20060;-87
2023/09/20 11:33:25;;;;;;;0.00;0.00;;;;;;;-145.48;100.00;64539.38;5838840;30;20563;-87
2023/09/20 11:37:25;;;;;;;0.00;0.00;;;;;;;-145.48;100.00;64539.38;5838932;30;20062;-87
2023/09/20 11:41:30;;;;;;;0.10;0.10;;;;;;;-145.48;100.00;64539.38;5843727;30;20049;-87
2023/09/20 11:45:34;;;;;;;0.52;0.10;;;;;;;-145.48;100.00;64539.38;5837506;30;20049;-87
2023/09/20 11:50:04;;;;;;;0.10;0.10;;;;;;;-145.48;100.00;64539.38;5837816;30;20054;-87
2023/09/20 11:54:10;;;;;;;0.00;0.00;;;;;;;-145.48;100.00;64539.38;5821177;30;20523;-87
2023/09/20 11:58:20;;;;;;;0.10;0.10;;;;;;;-145.48;100.00;64539.38;5832551;30;20041;-87
2023/09/20 12:02:24;;;;;;;0.10;0.10;;;;;;;-145.48;100.00;64539.38;5833580;30;20510;-84
2023/09/20 12:06:25;;;;;;;0.00;0.00;;;;;;;-145.48;100.00;64539.38;5842352;30;20056;-84
2023/09/20 12:10:26;;;;;;;0.10;0.10;;;;;;;-145.48;100.00;64539.38;5841451;30;20703;-84
2023/09/20 12:14:28;;;;;;;0.00;0.00;;;;;;;-145.48;100.00;64539.38;5809299;30;20049;-84
2023/09/20 12:18:28;;;;;;;0.00;0.00;;;;;;;-145.48;100.00;64539.38;5834878;30;20060;-84
2023/09/20 12:22:29;;;;;;;1.52;0.10;;;;;;;-145.48;100.00;64539.38;5834977;30;20089;-84
2023/09/20 12:26:29;;;;;;;;;;;;;;;-145.48;100.00;64539.38;5832883;30;20084;-84
2023/09/20 12:30:29;;;;;;;;;;;;;;;-145.48;100.00;64539.38;5809912;30;19962;-84
2023/09/20 12:34:30;;;;;;;0.00;0.00;;;;;;;-145.48;100.00;64539.38;5838504;30;20033;-85
2023/09/20 12:38:31;;;;;;;0.00;0.00;;;;;;;-145.48;100.00;64539.38;5838622;30;20061;-85
2023/09/20 12:42:33;;;;;;;0.00;0.00;;;;;;;-145.48;100.00;64539.38;5835609;30;20082;-84
2023/09/20 12:46:35;;;;;;;0.00;0.00;;;;;;;-145.48;100.00;64539.38;5838879;30;20048;-85
2023/09/20 12:50:37;;;;;;;0.00;0.00;;;;;;;-145.48;100.00;64539.38;5824650;30;20540;-84
2023/09/20 12:54:38;;;;;;;0.20;0.20;;;;;;;-145.48;100.00;64539.38;5836426;30;20513;-85
2023/09/20 12:58:40;;;;;;;2.38;0.77;;;;;;;-145.48;100.00;64539.38;5830121;30;20045;-85
2023/09/20 13:02:42;;;;;;;0.55;0.30;;;;;;;-145.48;100.00;64539.38;5819492;30;20053;-86
2023/09/20 13:06:43;;;;;;;0.10;0.10;;;;;;;-145.48;100.00;64539.38;5822805;30;20505;-86
2023/09/20 13:10:43;;;;;;;2.50;1.20;;;;;;;-145.48;100.00;64539.38;5839688;30;20061;-86
2023/09/20 13:14:44;;;;;;;0.30;0.30;;;;;;;-145.48;100.00;64539.38;5844561;30;20568;-86
2023/09/20 13:18:45;;;;;;;0.45;0.32;;;;;;;-145.48;100.00;64539.38;5843483;30;20049;-86
2023/09/20 13:22:46;;;;;;;0.60;0.60;;;;;;;-145.48;100.00;64539.38;5820824;30;20060;-87
2023/09/20 13:26:49;;;;;;;0.22;0.13;;;;;;;-145.48;100.00;64539.38;5836411;30;20045;-86
2023/09/20 13:30:51;;;;;;;0.05;0.05;;;;;;;-145.48;100.00;64539.38;5816556;30;20053;-90
2023/09/20 13:34:53;;;;;;;0.10;0.10;;;;;;;-145.48;100.00;64539.38;5839341;30;20049;-85
2023/09/20 13:38:54;;;;;;;0.17;0.17;;;;;;;-145.48;100.00;64539.38;5839808;30;20045;-85
2023/09/20 13:42:54;;;;;;;0.10;0.10;;;;;;;-145.48;100.00;64539.38;5832540;30;20061;-85
2023/09/20 13:46:56;;;;;;;0.10;0.10;;;;;;;-145.48;100.00;64539.38;5840958;30;20148;-86
2023/09/20 13:50:57;;;;;;;0.10;0.10;;;;;;;-145.48;100.00;64539.38;5826500;30;20069;-85
2023/09/20 13:54:57;;;;;;;0.17;0.17;;;;;;;-145.48;100.00;64539.38;5816081;30;21154;-85
2023/09/20 13:58:58;;;;;;;0.10;0.10;;;;;;;-145.48;100.00;64539.38;5840911;30;20046;-85
2023/09/20 14:03:01;;;;;;;0.20;0.20;;;;;;;-145.48;100.00;64539.38;5838202;30;20331;-86
2023/09/20 14:07:03;;;;;;;0.00;0.00;;;;;;;-145.48;100.00;64539.38;5814353;30;20429;-85
2023/09/20 14:11:06;;;;;;;0.10;0.10;;;;;;;-145.48;100.00;64539.38;5839844;30;20223;-86
2023/09/20 14:15:12;;;;;;;0.20;0.20;;;;;;;-145.48;100.00;64539.38;5842958;30;20096;-85
2023/09/20 14:19:12;;;;;;;0.10;0.10;;;;;;;-145.48;100.00;64539.38;5826781;30;20053;-85
2023/09/20 14:23:13;;;;;;;0.00;0.00;;;;;;;-145.48;100.00;64539.38;5817793;30;20087;-85
2023/09/20 14:27:17;;;;;;;0.10;0.10;;;;;;;-145.48;100.00;64539.38;5838410;30;20041;-85
2023/09/20 14:31:23;;;;;;;0.32;0.32;;;;;;;-145.48;100.00;64539.38;5837421;30;20045;-85
2023/09/20 14:35:24;;;;;;;0.25;0.10;;;;;;;-145.48;100.00;64539.38;5836766;30;20041;-86
2023/09/20 14:39:25;;;;;;;0.10;0.10;;;;;;;-145.48;100.00;64539.38;5814796;30;20114;-86
2023/09/20 14:43:25;;;;;;;0.10;0.10;;;;;;;-145.48;100.00;64539.38;5844442;30;20053;-86
2023/09/20 14:47:27;;;;;;;0.10;0.10;;;;;;;-145.48;100.00;64539.38;5845688;30;20048;-86
2023/09/20 14:51:28;;;;;;;0.20;0.20;;;;;;;-145.48;100.00;64539.38;5841349;30;20045;-86
2023/09/20 14:55:28;;;;;;;0.10;0.10;;;;;;;-145.48;100.00;64539.38;5842710;30;20057;-86
2023/09/20 14:59:30;;;;;;;0.10;0.10;;;;;;;-145.48;100.00;64539.38;5836650;30;20041;-86
2023/09/20 15:03:32;;;;;;;0.35;0.10;;;;;;;-145.48;100.00;64539.38;5826866;30;20120;-86
2023/09/20 15:07:33;;;;;;;0.15;0.15;;;;;;;-145.48;100.00;64539.38;5838963;30;20045;-85
2023/09/20 15:11:33;;;;;;;0.10;0.10;;;;;;;-145.48;100.00;64539.38;5817062;30;20383;-85
2023/09/20 15:15:34;;;;;;;0.47;0.10;;;;;;;-145.48;100.00;64539.38;5835409;30;20062;-85
2023/09/20 15:19:35;;;;;;;0.65;0.20;;;;;;;-145.48;100.00;64539.38;5838501;30;20053;-92
2023/09/20 15:23:37;;;;;;;0.00;0.00;;;;;;;-145.48;100.00;64539.38;5843873;30;20072;-86
2023/09/20 15:27:38;;;;;;;0.20;0.15;;;;;;;-145.48;100.00;64539.38;5838931;30;20048;-86
2023/09/20 15:31:44;;;;;;;0.10;0.10;;;;;;;-145.48;100.00;64539.38;5836077;30;20057;-87
2023/09/20 15:35:59;;;;;;;2.65;1.05;;;;;;;-145.48;100.00;64539.38;5841443;30;20486;-86
2023/09/20 15:40:03;;;;;;;0.77;0.28;;;;;;;-145.48;100.00;64539.38;5822002;30;20563;-88
2023/09/20 15:44:05;;;;;;;0.28;0.28;;;;;;;-145.48;100.00;64539.38;5826864;30;20041;-86
2023/09/20 15:48:05;;;;;;;0.30;0.30;;;;;;;-145.48;100.00;64539.38;5836275;30;20561;-87
2023/09/20 15:52:06;;;;;;;0.28;0.20;;;;;;;-145.48;100.00;64539.38;5823617;30;20180;-86
2023/09/20 15:56:07;;;;;;;0.10;0.10;;;;;;;-145.48;100.00;64539.38;5837051;30;20132;-86
2023/09/20 16:00:13;;;;;;;0.10;0.10;;;;;;;-145.48;100.00;64539.38;5814327;30;20056;-86
2023/09/20 16:04:16;;;;;;;0.20;0.20;;;;;;;-145.48;100.00;64539.38;5837037;30;20049;-86
2023/09/20 16:08:17;;;;;;;0.32;0.32;;;;;;;-145.48;100.00;64539.38;5840974;30;20056;-86
2023/09/20 16:12:18;;;;;;;0.45;0.30;;;;;;;-145.48;100.00;64539.38;5835338;30;20049;-86
2023/09/20 16:16:19;;;;;;;0.13;0.10;;;;;;;-145.48;100.00;64539.38;5841679;30;20080;-86
2023/09/20 16:20:20;;;;;;;0.15;0.15;;;;;;;-145.48;100.00;64539.38;5834344;30;20049;-86
2023/09/20 16:24:23;;;;;;;0.10;0.10;;;;;;;-145.48;100.00;64539.38;5840001;30;20049;-86
2023/09/20 16:28:26;;;;;;;0.20;0.20;;;;;;;-145.48;100.00;64539.38;5840491;30;20050;-86
2023/09/20 16:32:28;;;;;;;0.15;0.13;;;;;;;-145.48;100.00;64539.38;5837267;30;20049;-86
2023/09/20 16:36:31;;;;;;;0.20;0.17;;;;;;;-145.48;100.00;64539.38;5837075;30;20204;-86
2023/09/20 16:40:32;;;;;;;0.20;0.20;;;;;;;-145.48;100.00;64539.38;5838522;30;20049;-86
2023/09/20 16:44:33;;;;;;;0.10;0.10;;;;;;;-145.48;100.00;64539.38;5835898;30;20130;-86
2023/09/20 16:48:35;;;;;;;0.10;0.10;;;;;;;-145.48;100.00;64539.38;5840887;30;20136;-86
2023/09/20 16:52:37;;;;;;;0.10;0.10;;;;;;;-145.48;100.00;64539.38;5836098;30;20138;-87
2023/09/20 16:56:38;;;;;;;0.10;0.10;;;;;;;-145.48;100.00;64539.38;5833648;30;20060;-86
2023/09/20 17:00:38;;;;;;;;;;;;;;;-145.48;100.00;64539.38;5841782;30;20045;-86
2023/09/20 17:04:40;;;;;;;;;;;;;;;-145.48;100.00;64539.38;5838005;30;20708;-86
2023/09/20 17:08:40;;;;;;;0.28;0.13;;;;;;;-145.48;100.00;64539.38;5827601;30;19943;-88
2023/09/20 17:12:40;;;;;;;;;;;;;;;-145.48;100.00;64539.38;5833687;30;20041;-87
2023/09/20 17:16:41;;;;;;;0.00;0.00;;;;;;;-145.48;100.00;64539.38;5829598;30;19985;-88
2023/09/20 17:20:44;;;;;;;;;;;;;;;-145.48;100.00;64539.38;5841622;30;20042;-87
2023/09/20 17:24:45;;;;;;;0.10;0.10;;;;;;;-145.48;100.00;64539.38;5818719;30;19931;-87
2023/09/20 17:28:45;;;;;;;1.00;0.28;;;;;;;-145.48;100.00;64539.38;5834311;30;20492;-87
2023/09/20 17:32:47;;;;;;;0.00;0.00;;;;;;;-145.48;100.00;64539.38;5838175;30;20540;-87
2023/09/20 17:36:49;;;;;;;0.10;0.10;;;;;;;-145.48;100.00;64539.38;5841536;30;20056;-88
2023/09/20 17:40:49;;;;;;;0.10;0.10;;;;;;;-145.48;100.00;64539.38;5840757;30;20079;-87
2023/09/20 17:44:50;;;;;;;;;;;;;;;-145.48;100.00;64539.38;5835144;30;20060;-87
2023/09/20 17:48:50;;;;;;;0.10;0.10;;;;;;;-145.48;100.00;64539.38;5841920;30;19935;-87
2023/09/20 17:52:52;;;;;;;0.10;0.10;;;;;;;-145.48;100.00;64539.38;5831280;30;20049;-88
2023/09/20 17:56:52;;;;;;;0.10;0.10;;;;;;;-145.48;100.00;64539.38;5834506;30;20428;-88
2023/09/20 18:00:54;;;;;;;;;;;;;;;-145.48;100.00;64539.38;5833581;30;20053;-87
2023/09/20 18:04:57;;;;;;;0.45;0.30;;;;;;;-145.48;100.00;64539.38;5835968;30;19953;-87
2023/09/20 18:08:58;;;;;;;0.10;0.10;;;;;;;-145.48;100.00;64539.38;5836320;30;20201;-87
2023/09/20 18:12:58;;;;;;;1.08;0.17;;;;;;;-145.48;100.00;64539.38;5832876;30;20527;-87
2023/09/20 18:16:59;;;;;;;;;;;;;;;-145.48;100.00;64539.38;5847402;30;20053;-87
2023/09/20 18:21:00;;;;;;;0.03;0.03;;;;;;;-145.48;100.00;64539.38;5829978;30;19966;-87
2023/09/20 18:25:03;;;;;;;0.22;0.20;;;;;;;-145.48;100.00;64539.38;5826484;30;20064;-87
2023/09/20 18:29:05;;;;;;;0.20;0.10;;;;;;;-145.48;100.00;64539.38;5848772;30;20243;-87
2023/09/20 18:33:06;;;;;;;0.10;0.10;;;;;;;-145.48;100.00;64539.38;5848273;30;20127;-87
2023/09/20 18:37:13;;;;;;;0.20;0.20;;;;;;;-145.48;100.00;64539.38;5844896;30;20195;-87
2023/09/20 18:41:15;;;;;;;0.05;0.05;;;;;;;-145.48;100.00;64539.38;5844452;30;20050;-87
2023/09/20 18:45:15;;;;;;;0.15;0.15;;;;;;;-145.48;100.00;64539.38;5835779;30;20610;-87
2023/09/20 18:49:16;;;;;;;0.20;0.20;;;;;;;-145.48;100.00;64539.38;5845002;30;20572;-87
2023/09/20 18:53:17;;;;;;;;;;;;;;;-145.48;100.00;64539.38;5845438;30;20107;-87
2023/09/20 18:57:18;;;;;;;1.20;0.20;;;;;;;-145.48;100.00;64539.38;5844995;30;20116;-87
2023/09/20 19:01:22;;;;;;;0.38;0.10;;;;;;;-145.48;100.00;64539.38;5839814;30;20053;-87
2023/09/20 19:05:23;;;;;;;0.00;0.00;;;;;;;-145.48;100.00;64539.38;5843648;30;20037;-87
2023/09/20 19:09:24;;;;;;;0.10;0.10;;;;;;;-145.48;100.00;64539.38;5844386;30;20076;-87
2023/09/20 19:13:27;;;;;;;0.10;0.10;;;;;;;-145.48;100.00;64539.38;5837114;30;20406;-87